Time;durP1;ratioP1;P1;durP2;ratioP2;P2;SDS_P1;SDS_P2;PMS_P1;PMS_P2;Temp;Humidity;BMP_temperature;BMP_pressure;BME280_temperature;BME280_humidity;BME280_pressure;Samples;Min_cycle;Max_cycle;Signal;HPM_P1;HPM_P2
2022/09/19 00:01:45;;;;;;;;;;;;;;;22.96;42.49;100779.81;7407040;19;1847;-72
2022/09/19 00:04:15;;;;;;;;;;;;;;;23.01;42.43;100780.16;7408700;19;1453;-70
2022/09/19 00:06:44;;;;;;;;;;;;;;;22.92;42.64;100769.50;7408738;19;1404;-56
2022/09/19 00:09:14;;;;;;;;;;;;;;;22.93;42.38;100776.59;7408136;19;1534;-57
2022/09/19 00:11:44;;;;;;;;;;;;;;;22.95;42.62;100785.38;7409313;19;1640;-57
2022/09/19 00:14:14;;;;;;;;;;;;;;;22.93;42.44;100782.84;7407615;19;1397;-55
2022/09/19 00:16:47;;;;;;;;;;;;;;;22.92;42.31;100775.75;7409060;19;1534;-71
2022/09/19 00:19:17;;;;;;;;;;;;;;;22.92;42.47;100785.69;7408300;19;1779;-71
2022/09/19 00:21:46;;;;;;;;;;;;;;;22.92;42.26;100789.25;7407197;19;1851;-71
2022/09/19 00:26:56;;;;;;;;;;;;;;;22.91;42.37;100776.75;7409663;19;1613;-57
2022/09/19 00:29:25;;;;;;;;;;;;;;;22.92;42.77;100781.16;7407273;19;1566;-57
2022/09/19 00:31:56;;;;;;;;;;;;;;;22.90;42.47;100775.06;7409188;19;1644;-71
2022/09/19 00:34:25;;;;;;;;;;;;;;;22.91;42.29;100762.44;7406533;19;1692;-57
2022/09/19 00:36:53;;;;;;;;;;;;;;;22.92;42.95;100767.66;7408374;19;1581;-57
2022/09/19 00:39:22;;;;;;;;;;;;;;;22.91;42.13;100773.22;7407880;19;1625;-58
2022/09/19 00:41:50;;;;;;;;;;;;;;;22.92;42.59;100764.97;7407459;19;1854;-72
2022/09/19 00:44:33;;;;;;;;;;;;;;;22.90;42.25;100758.91;7407893;19;1518;-57
2022/09/19 00:47:08;;;;;;;;;;;;;;;22.92;42.57;100769.50;7407281;19;1625;-57
2022/09/19 00:49:38;;;;;;;;;;;;;;;22.87;42.66;100764.59;7406975;19;1704;-57
2022/09/19 00:52:09;;;;;;;;;;;;;;;22.87;42.63;100763.75;7408081;19;1640;-58
2022/09/19 00:54:40;;;;;;;;;;;;;;;22.87;42.55;100767.28;7407252;19;1566;-58
2022/09/19 00:57:09;;;;;;;;;;;;;;;22.87;42.45;100755.69;7406069;19;1546;-58
2022/09/19 00:59:39;;;;;;;;;;;;;;;22.86;42.52;100760.22;7406416;19;1503;-72
2022/09/19 01:02:10;;;;;;;;;;;;;;;22.87;42.27;100761.91;7405416;19;1842;-71
2022/09/19 01:04:40;;;;;;;;;;;;;;;22.84;42.32;100752.28;7405378;19;2005;-58
2022/09/19 01:07:14;;;;;;;;;;;;;;;22.86;42.23;100754.84;7404848;19;1633;-58
2022/09/19 01:09:48;;;;;;;;;;;;;;;22.83;42.10;100752.44;7404397;19;1554;-58
2022/09/19 01:12:26;;;;;;;;;;;;;;;22.84;42.16;100762.25;7405024;19;1671;-72
2022/09/19 01:15:09;;;;;;;;;;;;;;;22.86;42.27;100748.56;7404767;19;1816;-72
2022/09/19 01:17:45;;;;;;;;;;;;;;;22.81;42.03;100760.69;7400501;19;1851;-58
2022/09/19 01:20:32;;;;;;;;;;;;;;;22.83;42.57;100752.44;7404578;19;1395;-71
2022/09/19 01:23:08;;;;;;;;;;;;;;;22.80;42.53;100747.38;7402964;19;1853;-72
2022/09/19 01:25:43;;;;;;;;;;;;;;;22.79;42.19;100745.69;7405908;19;1768;-72
2022/09/19 01:28:18;;;;;;;;;;;;;;;22.79;42.16;100749.22;7404780;19;1594;-72
2022/09/19 01:31:16;;;;;;;;;;;;;;;22.78;42.05;100754.78;7407410;19;1606;-72
2022/09/19 01:33:39;;;;;;;;;;;;;;;22.81;42.31;100749.06;7405551;19;1822;-72
2022/09/19 01:36:10;;;;;;;;;;;;;;;22.79;42.20;100756.47;7404398;19;1455;-72
2022/09/19 01:38:40;;;;;;;;;;;;;;;22.80;42.36;100740.16;7405897;19;1591;-72
2022/09/19 01:41:10;;;;;;;;;;;;;;;22.80;42.32;100753.63;7405275;19;1844;-72
2022/09/19 01:43:41;;;;;;;;;;;;;;;22.80;42.49;100747.38;7406367;19;1178;-58
2022/09/19 01:46:13;;;;;;;;;;;;;;;22.78;42.32;100762.84;7405976;19;1649;-58
2022/09/19 01:48:46;;;;;;;;;;;;;;;22.76;42.51;100743.31;7402758;19;1333;-58
2022/09/19 01:51:23;;;;;;;;;;;;;;;22.75;42.66;100738.94;7404838;19;1403;-58
2022/09/19 01:53:59;;;;;;;;;;;;;;;22.76;42.38;100743.31;7404914;19;1308;-58
2022/09/19 01:56:32;;;;;;;;;;;;;;;22.76;42.26;100743.31;7405072;19;1253;-58
2022/09/19 01:59:08;;;;;;;;;;;;;;;22.77;42.50;100736.91;7404379;19;1386;-58
2022/09/19 02:01:39;;;;;;;;;;;;;;;22.77;42.32;100747.72;7393272;19;1846;-58
2022/09/19 02:04:13;;;;;;;;;;;;;;;22.78;42.19;100755.63;7400226;19;1666;-58
2022/09/19 02:06:48;;;;;;;;;;;;;;;22.78;42.33;100746.69;7403063;19;1645;-58
2022/09/19 02:09:21;;;;;;;;;;;;;;;22.75;42.08;100757.81;7401515;19;1542;-58
2022/09/19 02:11:50;;;;;;;;;;;;;;;22.74;42.31;100746.19;7402364;19;1351;-57
2022/09/19 02:14:26;;;;;;;;;;;;;;;22.71;42.11;100759.97;7402899;19;1348;-57
2022/09/19 02:17:03;;;;;;;;;;;;;;;22.71;41.97;100749.19;7404360;19;1625;-57
2022/09/19 02:19:33;;;;;;;;;;;;;;;22.72;42.43;100767.06;7402229;19;1332;-57
2022/09/19 02:22:04;;;;;;;;;;;;;;;22.71;42.11;100757.28;7403132;19;1879;-57
2022/09/19 02:24:35;;;;;;;;;;;;;;;22.70;42.28;100757.44;7401412;19;1425;-57
2022/09/19 02:27:09;;;;;;;;;;;;;;;22.68;42.03;100757.63;7403559;19;1438;-57
2022/09/19 02:29:45;;;;;;;;;;;;;;;22.69;42.38;100753.06;7403056;19;1370;-57
2022/09/19 02:32:14;;;;;;;;;;;;;;;22.68;42.23;100762.13;7404047;19;1447;-57
2022/09/19 02:34:43;;;;;;;;;;;;;;;22.69;42.15;100769.22;7402179;19;1453;-57
2022/09/19 02:37:15;;;;;;;;;;;;;;;22.67;42.60;100757.75;7400165;19;1766;-58
2022/09/19 02:39:46;;;;;;;;;;;;;;;22.68;42.38;100768.41;7401548;19;1354;-57
2022/09/19 02:42:19;;;;;;;;;;;;;;;22.73;42.26;100776.00;7400955;19;1882;-57
2022/09/19 02:44:59;;;;;;;;;;;;;;;22.72;42.17;100777.84;7400987;19;1777;-71
2022/09/19 02:47:30;;;;;;;;;;;;;;;22.67;42.31;100760.47;7401335;19;1320;-71
2022/09/19 02:50:02;;;;;;;;;;;;;;;22.71;42.50;100773.44;7402895;19;1419;-71
2022/09/19 02:52:32;;;;;;;;;;;;;;;22.67;42.26;100771.25;7402494;19;1281;-71
2022/09/19 02:55:04;;;;;;;;;;;;;;;22.68;42.26;100767.53;7402869;19;1352;-71
2022/09/19 02:57:35;;;;;;;;;;;;;;;22.66;42.34;100777.63;7404866;19;1523;-71
2022/09/19 03:00:07;;;;;;;;;;;;;;;22.68;42.39;100767.53;7402357;19;1610;-71
2022/09/19 03:02:37;;;;;;;;;;;;;;;22.70;42.41;100782.56;7401143;19;1850;-71
2022/09/19 03:05:09;;;;;;;;;;;;;;;22.66;42.43;100785.72;7402776;19;1641;-71
2022/09/19 03:07:41;;;;;;;;;;;;;;;22.63;42.44;100771.53;7399597;19;1332;-71
2022/09/19 03:10:12;;;;;;;;;;;;;;;22.63;42.65;100771.53;7399936;19;1369;-71
2022/09/19 03:12:50;;;;;;;;;;;;;;;22.62;42.54;100780.66;7400666;19;1237;-71
2022/09/19 03:15:22;;;;;;;;;;;;;;;22.66;42.32;100785.72;7400772;19;1565;-61
2022/09/19 03:17:51;;;;;;;;;;;;;;;22.66;42.53;100783.00;7401987;19;1645;-57
2022/09/19 03:20:22;;;;;;;;;;;;;;;22.62;42.60;100787.88;7399644;19;1469;-57
2022/09/19 03:22:51;;;;;;;;;;;;;;;22.65;42.44;100787.56;7399052;19;1846;-57
2022/09/19 03:25:19;;;;;;;;;;;;;;;22.64;42.42;100793.94;7400854;19;1155;-58
2022/09/19 03:27:49;;;;;;;;;;;;;;;22.62;42.58;100795.97;7402676;19;1486;-57
2022/09/19 03:30:17;;;;;;;;;;;;;;;22.59;42.68;100802.53;7401413;19;1358;-57
2022/09/19 03:32:49;;;;;;;;;;;;;;;22.61;42.52;100794.28;7401725;19;1392;-57
2022/09/19 03:35:17;;;;;;;;;;;;;;;22.60;42.87;100804.22;7401046;19;1187;-57
2022/09/19 03:37:46;;;;;;;;;;;;;;;22.59;42.74;100809.75;7401350;19;1673;-58
2022/09/19 03:40:14;;;;;;;;;;;;;;;22.62;42.38;100810.31;7404451;19;1562;-59
2022/09/19 03:42:44;;;;;;;;;;;;;;;22.64;42.73;100796.66;7406653;19;1867;-63
2022/09/19 03:45:12;;;;;;;;;;;;;;;22.71;42.82;100805.81;7409616;19;1431;-62
2022/09/19 03:47:41;;;;;;;;;;;;;;;22.71;43.00;100802.25;7409596;19;1733;-61
2022/09/19 03:50:12;;;;;;;;;;;;;;;22.68;42.84;100789.09;7409404;19;1363;-61
2022/09/19 03:52:41;;;;;;;;;;;;;;;22.67;42.86;100799.03;7407966;19;1692;-57
2022/09/19 03:55:09;;;;;;;;;;;;;;;22.67;43.08;100796.34;7406097;19;1680;-57
2022/09/19 03:57:38;;;;;;;;;;;;;;;22.63;43.12;100787.72;7405351;19;1423;-57
2022/09/19 04:00:07;;;;;;;;;;;;;;;22.64;43.03;100789.44;7408568;19;1366;-57
2022/09/19 04:02:35;;;;;;;;;;;;;;;22.62;42.94;100788.75;7403192;19;1861;-57
2022/09/19 04:05:04;;;;;;;;;;;;;;;22.68;42.91;100799.88;7405391;19;1349;-57
2022/09/19 04:07:36;;;;;;;;;;;;;;;22.63;42.86;100793.13;7408149;19;1416;-57
2022/09/19 04:10:04;;;;;;;;;;;;;;;22.64;43.41;100812.81;7404989;19;1747;-57
2022/09/19 04:12:33;;;;;;;;;;;;;;;22.63;44.11;100808.44;7408501;19;1298;-58
2022/09/19 04:15:01;;;;;;;;;;;;;;;22.60;44.19;100795.28;7405248;19;1555;-57
2022/09/19 04:17:30;;;;;;;;;;;;;;;22.71;44.93;100796.88;7408863;19;1577;-57
2022/09/19 04:19:58;;;;;;;;;;;;;;;22.63;45.14;100803.06;7406301;19;1646;-59
2022/09/19 04:22:26;;;;;;;;;;;;;;;22.59;45.05;100793.59;7398421;19;1846;-58
2022/09/19 04:24:57;;;;;;;;;;;;;;;22.52;44.10;100796.09;7352067;19;14928;-59
2022/09/19 04:27:26;;;;;;;;;;;;;;;22.27;43.41;100807.69;7408481;19;1615;-56
2022/09/19 04:29:55;;;;;;;;;;;;;;;22.18;44.64;100804.91;7404545;19;1206;-57
2022/09/19 04:32:23;;;;;;;;;;;;;;;22.12;44.92;100810.88;7406413;19;1375;-57
2022/09/19 04:34:55;;;;;;;;;;;;;;;22.17;44.29;100808.56;7405069;19;1738;-58
2022/09/19 04:37:23;;;;;;;;;;;;;;;22.37;44.25;100819.22;7404314;19;1578;-57
2022/09/19 04:39:52;;;;;;;;;;;;;;;22.36;43.85;100809.41;7403474;19;1651;-57
2022/09/19 04:42:22;;;;;;;;;;;;;;;22.44;44.21;100820.25;7402829;19;1840;-57
2022/09/19 04:44:53;;;;;;;;;;;;;;;22.43;45.20;100815.88;7405810;19;1754;-57
2022/09/19 04:47:21;;;;;;;;;;;;;;;22.44;44.76;100798.69;7406969;19;1427;-56
2022/09/19 04:49:50;;;;;;;;;;;;;;;22.39;44.71;100809.97;7404569;19;1649;-57
2022/09/19 04:52:18;;;;;;;;;;;;;;;22.31;44.62;100801.81;7405956;19;1533;-57
2022/09/19 04:54:48;;;;;;;;;;;;;;;22.31;44.50;100826.06;7407748;19;1544;-57
2022/09/19 04:57:16;;;;;;;;;;;;;;;22.37;44.38;100816.50;7405843;19;1491;-57
2022/09/19 04:59:47;;;;;;;;;;;;;;;22.33;43.77;100817.84;7404254;19;1583;-70
2022/09/19 05:02:15;;;;;;;;;;;;;;;22.37;43.46;100811.13;7406392;19;1825;-69
2022/09/19 05:04:45;;;;;;;;;;;;;;;22.63;42.58;100803.91;7405391;19;1275;-70
2022/09/19 05:07:13;;;;;;;;;;;;;;;22.80;42.59;100801.28;7407971;19;1266;-69
2022/09/19 05:09:42;;;;;;;;;;;;;;;22.76;42.90;100810.69;7405932;19;1338;-62
2022/09/19 05:12:10;;;;;;;;;;;;;;;22.91;42.93;100811.81;7406756;19;1609;-68
2022/09/19 05:14:38;;;;;;;;;;;;;;;22.84;43.62;100816.16;7406973;19;1646;-77
2022/09/19 05:17:09;;;;;;;;;;;;;;;22.82;43.29;100791.22;7407008;19;1309;-74
2022/09/19 05:19:38;;;;;;;;;;;;;;;22.86;42.72;100803.38;7407882;19;1367;-74
2022/09/19 05:22:06;;;;;;;;;;;;;;;22.96;43.23;100804.09;7406362;19;1867;-71
2022/09/19 05:24:37;;;;;;;;;;;;;;;22.95;43.42;100791.59;7407520;19;1341;-75
2022/09/19 05:27:06;;;;;;;;;;;;;;;23.02;41.79;100803.47;7407626;19;1414;-72
2022/09/19 05:29:39;;;;;;;;;;;;;;;22.98;41.28;100801.25;7405839;19;1317;-78
2022/09/19 05:32:10;;;;;;;;;;;;;;;22.97;41.73;100804.94;7407679;19;1669;-74
2022/09/19 05:34:38;;;;;;;;;;;;;;;23.06;41.35;100809.41;7407290;19;1466;-71
2022/09/19 05:37:06;;;;;;;;;;;;;;;23.15;42.08;100812.97;7406622;19;1703;-73
2022/09/19 05:39:35;;;;;;;;;;;;;;;23.18;42.16;100812.66;7407395;19;1687;-66
2022/09/19 05:42:03;;;;;;;;;;;;;;;23.26;41.21;100814.53;7405647;19;1864;-56
2022/09/19 05:44:31;;;;;;;;;;;;;;;23.23;41.48;100827.34;7406706;19;1412;-68
2022/09/19 05:47:00;;;;;;;;;;;;;;;23.21;41.52;100818.56;7405754;19;1591;-63
2022/09/19 05:49:32;;;;;;;;;;;;;;;23.25;41.98;100818.25;7404755;19;1636;-60
2022/09/19 05:53:51;;;;;;;;;;;;;;;23.26;41.19;100809.13;7404425;19;1482;-58
2022/09/19 05:54:47;;;;;;;;;;;;;;;22.96;40.84;100841.84;7403703;19;1300;-56
2022/09/19 05:57:16;;;;;;;;;;;;;;;23.17;42.28;100816.34;7404224;19;1483;-56
2022/09/19 05:59:44;;;;;;;;;;;;;;;23.20;43.26;100826.84;7405531;19;1545;-56
2022/09/19 06:02:13;;;;;;;;;;;;;;;23.20;43.36;100819.56;7402045;19;1834;-56
2022/09/19 06:04:44;;;;;;;;;;;;;;;23.28;43.28;100817.91;7401015;19;1481;-56
2022/09/19 06:07:13;;;;;;;;;;;;;;;23.32;43.17;100830.94;7403661;19;1356;-57
2022/09/19 06:09:42;;;;;;;;;;;;;;;23.29;43.10;100819.59;7405884;19;1560;-57
2022/09/19 06:12:10;;;;;;;;;;;;;;;23.30;42.59;100819.44;7405067;19;1678;-67
2022/09/19 06:14:38;;;;;;;;;;;;;;;23.35;42.89;100830.59;7404765;19;1564;-57
2022/09/19 06:17:07;;;;;;;;;;;;;;;23.36;42.77;100816.09;7405918;19;1651;-69
2022/09/19 06:19:35;;;;;;;;;;;;;;;23.36;42.91;100824.19;7404968;19;1611;-68
2022/09/19 06:22:06;;;;;;;;;;;;;;;23.32;42.17;100830.94;7403415;19;1285;-56
2022/09/19 06:24:35;;;;;;;;;;;;;;;23.33;41.72;100845.25;7402945;19;1864;-57
2022/09/19 06:27:03;;;;;;;;;;;;;;;23.30;41.44;100822.16;7404331;19;1591;-57
2022/09/19 06:29:31;;;;;;;;;;;;;;;23.37;41.50;100833.97;7402232;19;1782;-57
2022/09/19 06:31:59;;;;;;;;;;;;;;;23.39;41.68;100829.25;7405738;19;1608;-57
2022/09/19 06:34:27;;;;;;;;;;;;;;;23.42;41.53;100837.03;7403429;19;1611;-57
2022/09/19 06:36:56;;;;;;;;;;;;;;;23.39;41.16;100826.56;7405551;19;1554;-57
2022/09/19 06:39:27;;;;;;;;;;;;;;;23.37;41.27;100830.44;7403954;19;1757;-57
2022/09/19 06:41:55;;;;;;;;;;;;;;;23.40;40.77;100838.22;7404456;19;1546;-57
2022/09/19 06:44:24;;;;;;;;;;;;;;;23.38;40.83;100829.44;7403612;19;1849;-58
2022/09/19 06:46:52;;;;;;;;;;;;;;;23.40;40.82;100828.25;7404100;19;1575;-69
2022/09/19 06:49:21;;;;;;;;;;;;;;;23.37;40.64;100823.16;7402722;19;1259;-69
2022/09/19 06:51:49;;;;;;;;;;;;;;;23.43;41.23;100825.22;7403516;19;1538;-68
2022/09/19 06:54:17;;;;;;;;;;;;;;;23.40;40.61;100830.13;7404131;19;1635;-69
2022/09/19 06:56:49;;;;;;;;;;;;;;;23.43;40.38;100830.63;7402813;19;1564;-58
2022/09/19 06:59:18;;;;;;;;;;;;;;;23.48;40.29;100822.03;7404603;19;1765;-57
2022/09/19 07:01:46;;;;;;;;;;;;;;;23.45;40.58;100824.22;7402505;19;1362;-57
2022/09/19 07:04:15;;;;;;;;;;;;;;;23.41;40.49;100818.31;7401595;19;1845;-69
2022/09/19 07:06:43;;;;;;;;;;;;;;;23.45;40.33;100818.81;7400085;19;1680;-69
2022/09/19 07:09:11;;;;;;;;;;;;;;;23.47;40.32;100822.19;7401913;19;1675;-68
2022/09/19 07:11:40;;;;;;;;;;;;;;;23.47;40.24;100819.50;7402943;19;1322;-69
2022/09/19 07:14:10;;;;;;;;;;;;;;;23.44;39.94;100818.00;7404628;19;1415;-69
2022/09/19 07:16:39;;;;;;;;;;;;;;;23.45;39.80;100814.25;7411114;19;1572;-69
2022/09/19 07:19:07;;;;;;;;;;;;;;;23.48;40.31;100821.22;7411247;19;1607;-69
2022/09/19 07:21:35;;;;;;;;;;;;;;;23.46;39.98;100837.56;7410837;19;1932;-68
2022/09/19 07:24:06;;;;;;;;;;;;;;;23.39;39.57;100829.25;7409330;19;1854;-69
2022/09/19 07:26:34;;;;;;;;;;;;;;;23.45;39.54;100827.75;7411045;19;1734;-69
2022/09/19 07:29:02;;;;;;;;;;;;;;;23.44;40.00;100820.69;7409793;19;1368;-69
2022/09/19 07:31:33;;;;;;;;;;;;;;;23.36;39.47;100810.72;7410422;19;1558;-69
2022/09/19 07:34:01;;;;;;;;;;;;;;;23.45;40.26;100813.44;7410298;19;1408;-70
2022/09/19 07:36:30;;;;;;;;;;;;;;;23.47;40.20;100831.13;7410593;19;1474;-61
2022/09/19 07:38:58;;;;;;;;;;;;;;;23.60;40.72;100818.03;7407444;19;1680;-59
2022/09/19 07:41:26;;;;;;;;;;;;;;;23.71;40.92;100822.25;7409649;19;1632;-57
2022/09/19 07:43:54;;;;;;;;;;;;;;;23.81;40.91;100841.91;7406180;19;1851;-60
2022/09/19 07:46:23;;;;;;;;;;;;;;;23.66;40.41;100821.94;7409625;19;1704;-61
2022/09/19 07:48:55;;;;;;;;;;;;;;;23.69;40.91;100823.44;7408720;19;1451;-60
2022/09/19 07:51:23;;;;;;;;;;;;;;;23.73;41.03;100806.75;7409809;19;1313;-59
2022/09/19 07:53:51;;;;;;;;;;;;;;;23.81;41.62;100822.16;7407631;19;1478;-73
2022/09/19 07:56:19;;;;;;;;;;;;;;;23.76;41.58;100822.63;7408930;19;1387;-66
2022/09/19 07:58:48;;;;;;;;;;;;;;;23.74;41.51;100819.25;7410396;19;1292;-67
2022/09/19 08:01:17;;;;;;;;;;;;;;;23.80;41.27;100821.31;7407008;19;1448;-68
2022/09/19 08:03:46;;;;;;;;;;;;;;;23.76;41.48;100822.63;7406792;19;1902;-57
2022/09/19 08:06:17;;;;;;;;;;;;;;;23.74;41.69;100813.84;7407655;19;1281;-58
2022/09/19 08:08:46;;;;;;;;;;;;;;;23.75;41.73;100818.22;7406889;19;1439;-59
2022/09/19 08:11:14;;;;;;;;;;;;;;;23.75;41.50;100814.69;7409196;19;1445;-59
2022/09/19 08:13:44;;;;;;;;;;;;;;;23.77;41.32;100829.72;7406267;19;1674;-65
2022/09/19 08:16:13;;;;;;;;;;;;;;;23.68;40.14;100836.09;7407149;19;1435;-61
2022/09/19 08:18:42;;;;;;;;;;;;;;;23.62;41.44;100824.09;7407527;19;1446;-62
2022/09/19 08:21:10;;;;;;;;;;;;;;;23.55;39.09;100804.16;7407152;19;1568;-59
2022/09/19 08:23:41;;;;;;;;;;;;;;;23.54;40.08;100823.25;7405952;19;1865;-60
2022/09/19 08:26:10;;;;;;;;;;;;;;;23.65;38.97;100819.38;7406508;19;1811;-64
2022/09/19 08:28:38;;;;;;;;;;;;;;;23.62;39.52;100807.91;7407784;19;1581;-63
2022/09/19 08:31:08;;;;;;;;;;;;;;;23.70;41.11;100812.50;7408429;19;1334;-65
2022/09/19 08:33:37;;;;;;;;;;;;;;;23.86;40.38;100816.28;7407622;19;1471;-56
2022/09/19 08:36:05;;;;;;;;;;;;;;;23.87;40.72;100804.44;7406946;19;1290;-63
2022/09/19 08:38:33;;;;;;;;;;;;;;;23.76;39.11;100792.09;7407630;19;1315;-65
2022/09/19 08:41:14;;;;;;;;;;;;;;;23.62;38.01;100798.97;7408283;19;1631;-65
2022/09/19 08:43:45;;;;;;;;;;;;;;;23.59;37.60;100791.19;7407062;19;1858;-65
2022/09/19 08:46:16;;;;;;;;;;;;;;;23.58;37.77;100792.22;7407788;19;1556;-57
2022/09/19 08:48:57;;;;;;;;;;;;;;;23.61;38.93;100789.16;7408282;19;1565;-57
2022/09/19 08:51:29;;;;;;;;;;;;;;;23.64;38.58;100780.75;7407209;19;1577;-57
2022/09/19 08:53:59;;;;;;;;;;;;;;;23.69;39.09;100799.16;7407477;19;1781;-57
2022/09/19 08:56:31;;;;;;;;;;;;;;;23.70;38.95;100784.66;7406494;19;1789;-56
2022/09/19 08:59:02;;;;;;;;;;;;;;;23.68;39.15;100787.50;7407346;19;1619;-57
2022/09/19 09:01:32;;;;;;;;;;;;;;;23.65;38.84;100763.53;7405670;19;1844;-57
2022/09/19 09:04:08;;;;;;;;;;;;;;;23.69;39.09;100777.53;7406863;19;1858;-56
2022/09/19 09:06:40;;;;;;;;;;;;;;;23.63;38.43;100771.81;7407521;19;1576;-58
2022/09/19 09:09:12;;;;;;;;;;;;;;;23.68;38.50;100768.59;7406276;19;1793;-56
2022/09/19 09:11:50;;;;;;;;;;;;;;;23.64;38.80;100764.56;7406907;19;1538;-57
2022/09/19 09:14:23;;;;;;;;;;;;;;;23.65;38.36;100763.53;7407213;19;1548;-65
2022/09/19 09:16:58;;;;;;;;;;;;;;;23.59;37.02;100756.94;7405819;19;1338;-65
2022/09/19 09:19:33;;;;;;;;;;;;;;;23.61;37.72;100748.69;7406934;19;1537;-65
2022/09/19 09:22:06;;;;;;;;;;;;;;;23.64;37.61;100748.34;7406181;19;1564;-57
2022/09/19 09:24:37;;;;;;;;;;;;;;;23.63;37.88;100741.25;7405304;19;1854;-57
2022/09/19 09:27:14;;;;;;;;;;;;;;;23.59;36.53;100756.94;7406801;19;1565;-65
2022/09/19 09:29:45;;;;;;;;;;;;;;;23.61;36.61;100744.13;7406780;19;1579;-65
2022/09/19 09:32:17;;;;;;;;;;;;;;;23.65;37.09;100750.03;7407477;19;1381;-65
2022/09/19 09:34:48;;;;;;;;;;;;;;;23.58;36.63;100733.66;7405803;19;1553;-66
2022/09/19 09:37:20;;;;;;;;;;;;;;;23.56;36.13;100749.19;7405397;19;1563;-65
2022/09/19 09:40:00;;;;;;;;;;;;;;;23.61;36.34;100727.06;7408731;19;926;-65
2022/09/19 09:42:33;;;;;;;;;;;;;;;23.66;36.34;100734.69;7407070;19;1556;-65
2022/09/19 09:45:05;;;;;;;;;;;;;;;23.71;37.46;100726.94;7405710;19;1864;-64
2022/09/19 09:47:43;;;;;;;;;;;;;;;23.61;36.21;100725.22;7405939;19;1425;-65
2022/09/19 09:50:19;;;;;;;;;;;;;;;23.65;35.94;100728.44;7406447;19;1560;-56
2022/09/19 09:52:53;;;;;;;;;;;;;;;23.69;36.34;100718.16;7406480;19;1371;-57
2022/09/19 09:58:31;;;;;;;;;;;;;;;23.68;35.78;100733.50;7405647;19;1525;-55
2022/09/19 10:04:02;;;;;;;;;;;;;;;23.65;35.50;100717.63;7405268;19;1849;-57
2022/09/19 10:06:33;;;;;;;;;;;;;;;23.70;36.25;100712.59;7405782;19;1711;-57
2022/09/19 10:09:05;;;;;;;;;;;;;;;23.68;36.32;100701.13;7402525;19;2068;-57
2022/09/19 10:11:37;;;;;;;;;;;;;;;23.73;36.01;100703.31;7404135;19;1639;-65
2022/09/19 10:14:14;;;;;;;;;;;;;;;23.76;36.20;100714.63;7405047;19;1521;-56
2022/09/19 10:16:46;;;;;;;;;;;;;;;23.75;37.13;100710.22;7404038;19;1619;-57
2022/09/19 10:19:25;;;;;;;;;;;;;;;23.70;35.58;100712.59;7403237;19;1280;-57
2022/09/19 10:21:54;;;;;;;;;;;;;;;23.69;35.55;100707.34;7404962;19;1540;-57
2022/09/19 10:24:38;;;;;;;;;;;;;;;23.76;37.21;100709.22;7403523;19;1869;-57
2022/09/19 10:27:11;;;;;;;;;;;;;;;23.77;35.95;100700.13;7404072;19;1567;-56
2022/09/19 10:29:50;;;;;;;;;;;;;;;23.79;37.15;100717.00;7404319;19;1541;-62
2022/09/19 10:32:19;;;;;;;;;;;;;;;23.81;37.14;100715.00;7405582;19;1554;-57
2022/09/19 10:34:50;;;;;;;;;;;;;;;23.67;41.11;100702.13;7403185;19;1564;-56
2022/09/19 10:37:20;;;;;;;;;;;;;;;23.64;40.38;100697.06;7403735;19;1561;-57
2022/09/19 10:39:48;;;;;;;;;;;;;;;23.73;36.92;100697.91;7403666;19;1289;-60
2022/09/19 10:42:31;;;;;;;;;;;;;;;23.81;38.07;100695.22;7403754;19;1754;-57
2022/09/19 10:45:03;;;;;;;;;;;;;;;23.85;38.10;100679.53;7402874;19;1862;-57
2022/09/19 10:47:32;;;;;;;;;;;;;;;23.81;36.90;100679.91;7402944;19;1770;-62
2022/09/19 10:50:05;;;;;;;;;;;;;;;23.73;36.53;100674.44;7407263;19;1501;-64
2022/09/19 10:52:33;;;;;;;;;;;;;;;23.71;36.43;100686.44;7408160;19;1701;-68
2022/09/19 10:55:09;;;;;;;;;;;;;;;23.76;37.14;100663.31;7410737;19;1552;-64
2022/09/19 10:57:44;;;;;;;;;;;;;;;23.86;37.55;100671.28;7412066;19;1562;-63
2022/09/19 11:00:29;;;;;;;;;;;;;;;23.86;36.87;100660.47;7411271;19;1470;-65
2022/09/19 11:03:01;;;;;;;;;;;;;;;23.81;37.40;100663.69;7408254;19;1541;-64
2022/09/19 11:05:31;;;;;;;;;;;;;;;23.79;36.97;100665.69;7407242;19;1871;-64
2022/09/19 11:08:00;;;;;;;;;;;;;;;23.82;37.87;100662.66;7411621;19;1365;-64
2022/09/19 11:10:33;;;;;;;;;;;;;;;23.76;37.44;100647.09;7411076;19;1545;-64
2022/09/19 11:13:14;;;;;;;;;;;;;;;23.72;37.21;100643.06;7411284;19;1540;-64
2022/09/19 11:15:57;;;;;;;;;;;;;;;23.71;40.04;100641.38;7411490;19;1616;-64
2022/09/19 11:18:29;;;;;;;;;;;;;;;23.69;39.55;100642.56;7410631;19;1740;-63
2022/09/19 11:21:07;;;;;;;;;;;;;;;23.65;39.81;100631.25;7408790;19;1214;-63
2022/09/19 11:23:52;;;;;;;;;;;;;;;23.66;39.48;100634.81;7409650;19;1653;-57
2022/09/19 11:26:28;;;;;;;;;;;;;;;23.67;39.21;100636.47;7409874;19;1775;-57
2022/09/19 11:29:02;;;;;;;;;;;;;;;23.71;38.89;100618.94;7409091;19;1619;-62
2022/09/19 11:31:37;;;;;;;;;;;;;;;23.65;38.65;100612.34;7409796;19;1397;-62
2022/09/19 11:34:13;;;;;;;;;;;;;;;23.70;39.31;100612.69;7410058;19;1537;-61
2022/09/19 11:36:47;;;;;;;;;;;;;;;23.72;39.01;100616.06;7407810;19;1375;-61
2022/09/19 11:39:18;;;;;;;;;;;;;;;23.73;38.90;100612.34;7409736;19;1632;-61
2022/09/19 11:41:55;;;;;;;;;;;;;;;23.66;38.36;100603.25;7410666;19;1533;-60
2022/09/19 11:44:34;;;;;;;;;;;;;;;23.66;38.02;100616.75;7408671;19;1853;-62
2022/09/19 11:47:12;;;;;;;;;;;;;;;23.64;37.78;100605.28;7409489;19;1271;-62
2022/09/19 11:49:51;;;;;;;;;;;;;;;23.63;37.48;100608.97;7405716;19;1537;-62
2022/09/19 11:52:25;;;;;;;;;;;;;;;23.71;37.33;100613.53;7410039;19;1421;-64
2022/09/19 11:55:01;;;;;;;;;;;;;;;23.72;38.13;100588.22;7408769;19;1281;-62
2022/09/19 11:57:37;;;;;;;;;;;;;;;23.69;37.47;100585.84;7407498;19;1615;-62
2022/09/19 12:00:09;;;;;;;;;;;;;;;23.58;37.20;100587.06;7407720;19;1639;-61
2022/09/19 12:02:46;;;;;;;;;;;;;;;23.62;36.77;100578.44;7407118;19;1565;-62
2022/09/19 12:05:21;;;;;;;;;;;;;;;23.65;36.82;100588.06;7407742;19;1858;-62
2022/09/19 12:07:57;;;;;;;;;;;;;;;23.64;36.99;100591.78;7408557;19;1330;-63
2022/09/19 12:10:29;;;;;;;;;;;;;;;23.60;36.73;100575.06;7407465;19;1264;-62
2022/09/19 12:12:59;;;;;;;;;;;;;;;23.60;36.53;100582.34;7407934;19;1251;-62
2022/09/19 12:15:28;;;;;;;;;;;;;;;23.63;36.53;100587.38;7407121;19;1312;-67
2022/09/19 12:18:04;;;;;;;;;;;;;;;23.60;36.56;100574.25;7406887;19;1193;-60
2022/09/19 12:20:35;;;;;;;;;;;;;;;23.62;36.62;100577.63;7408841;19;1335;-60
2022/09/19 12:24:52;;;;;;;;;;;;;;;23.65;36.65;100576.41;7407884;19;1423;-65
2022/09/19 12:25:57;;;;;;;;;;;;;;;23.62;36.65;100578.44;7405234;19;1861;-60
2022/09/19 12:28:28;;;;;;;;;;;;;;;23.61;36.45;100571.34;7409668;19;1323;-64
2022/09/19 12:31:00;;;;;;;;;;;;;;;23.64;36.33;100559.38;7408531;19;1348;-62
2022/09/19 12:33:36;;;;;;;;;;;;;;;23.63;35.86;100574.75;7404499;19;1719;-63
2022/09/19 12:36:10;;;;;;;;;;;;;;;23.59;35.64;100573.38;7409792;19;1479;-59
2022/09/19 12:38:40;;;;;;;;;;;;;;;23.62;35.81;100569.50;7405966;19;1765;-63
2022/09/19 12:41:14;;;;;;;;;;;;;;;23.62;35.77;100573.03;7408285;19;1444;-62
2022/09/19 12:43:46;;;;;;;;;;;;;;;23.62;35.74;100545.22;7407056;19;1572;-62
2022/09/19 12:46:21;;;;;;;;;;;;;;;23.62;35.94;100551.44;7405446;19;1838;-61
2022/09/19 12:49:01;;;;;;;;;;;;;;;23.58;35.72;100543.88;7407967;19;1612;-64
2022/09/19 12:51:33;;;;;;;;;;;;;;;23.52;35.42;100537.31;7408461;19;1332;-65
2022/09/19 12:54:05;;;;;;;;;;;;;;;23.65;36.01;100525.97;7405467;19;1762;-57
2022/09/19 12:56:35;;;;;;;;;;;;;;;23.77;36.77;100530.00;7405076;19;1340;-65
2022/09/19 12:59:07;;;;;;;;;;;;;;;23.81;37.98;100534.06;7404973;19;1318;-55
2022/09/19 13:01:38;;;;;;;;;;;;;;;23.75;38.93;100526.59;7406838;19;1388;-55
2022/09/19 13:04:25;;;;;;;;;;;;;;;23.74;39.21;100529.50;7406508;19;1770;-56
2022/09/19 13:06:56;;;;;;;;;;;;;;;23.78;38.10;100528.19;7408525;19;1497;-64
2022/09/19 13:09:26;;;;;;;;;;;;;;;23.82;39.03;100529.50;7405882;19;1777;-56
2022/09/19 13:11:59;;;;;;;;;;;;;;;23.87;38.83;100545.19;7404678;19;1672;-56
2022/09/19 13:14:33;;;;;;;;;;;;;;;23.80;40.53;100521.56;7406543;19;1609;-56
2022/09/19 13:25:14;;;;;;;;;;;;;;;23.84;40.59;100500.47;7408081;19;1835;-67
2022/09/19 13:27:45;;;;;;;;;;;;;;;23.95;39.93;100505.47;7404822;19;1223;-68